sensor_id;sensor_type;location;lat;lon;timestamp;P1;durP1;ratioP1;P2;durP2;ratioP2
6513;SDS011;3290;47.716;9.070;2022-09-13T00:01:57;8.17;;;2.40;;
6513;SDS011;3290;47.716;9.070;2022-09-13T00:04:23;2.50;;;2.30;;
6513;SDS011;3290;47.716;9.070;2022-09-13T00:06:48;3.10;;;2.20;;
6513;SDS011;3290;47.716;9.070;2022-09-13T00:09:14;4.23;;;2.70;;
6513;SDS011;3290;47.716;9.070;2022-09-13T00:11:39;5.13;;;2.40;;
6513;SDS011;3290;47.716;9.070;2022-09-13T00:14:04;3.03;;;1.77;;
6513;SDS011;3290;47.716;9.070;2022-09-13T00:16:30;8.10;;;2.17;;
6513;SDS011;3290;47.716;9.070;2022-09-13T00:18:55;4.23;;;1.90;;
6513;SDS011;3290;47.716;9.070;2022-09-13T00:21:21;8.23;;;2.30;;
6513;SDS011;3290;47.716;9.070;2022-09-13T00:23:49;6.00;;;2.13;;
6513;SDS011;3290;47.716;9.070;2022-09-13T00:26:17;3.80;;;2.20;;
6513;SDS011;3290;47.716;9.070;2022-09-13T00:28:48;2.60;;;1.80;;
6513;SDS011;3290;47.716;9.070;2022-09-13T00:31:17;2.27;;;2.07;;
6513;SDS011;3290;47.716;9.070;2022-09-13T00:33:43;4.67;;;2.30;;
6513;SDS011;3290;47.716;9.070;2022-09-13T00:36:09;3.13;;;2.20;;
6513;SDS011;3290;47.716;9.070;2022-09-13T00:38:36;4.60;;;2.17;;
6513;SDS011;3290;47.716;9.070;2022-09-13T00:41:06;2.63;;;2.03;;
6513;SDS011;3290;47.716;9.070;2022-09-13T00:43:56;3.20;;;2.43;;
6513;SDS011;3290;47.716;9.070;2022-09-13T00:46:34;3.20;;;2.20;;
6513;SDS011;3290;47.716;9.070;2022-09-13T00:51:45;4.43;;;2.20;;
6513;SDS011;3290;47.716;9.070;2022-09-13T00:54:14;4.83;;;1.90;;
6513;SDS011;3290;47.716;9.070;2022-09-13T00:56:42;2.37;;;2.17;;
6513;SDS011;3290;47.716;9.070;2022-09-13T00:59:13;2.97;;;2.27;;
6513;SDS011;3290;47.716;9.070;2022-09-13T01:01:45;2.30;;;2.10;;
6513;SDS011;3290;47.716;9.070;2022-09-13T01:04:13;3.07;;;1.73;;
6513;SDS011;3290;47.716;9.070;2022-09-13T01:06:41;3.73;;;1.90;;
6513;SDS011;3290;47.716;9.070;2022-09-13T01:09:09;3.50;;;2.20;;
6513;SDS011;3290;47.716;9.070;2022-09-13T01:11:46;4.83;;;2.20;;
6513;SDS011;3290;47.716;9.070;2022-09-13T01:14:19;2.03;;;1.83;;
6513;SDS011;3290;47.716;9.070;2022-09-13T01:16:48;3.47;;;1.73;;
6513;SDS011;3290;47.716;9.070;2022-09-13T01:19:13;5.00;;;1.90;;
6513;SDS011;3290;47.716;9.070;2022-09-13T01:41:07;17.97;;;2.57;;
6513;SDS011;3290;47.716;9.070;2022-09-13T01:46:29;3.93;;;2.20;;
6513;SDS011;3290;47.716;9.070;2022-09-13T01:49:16;2.57;;;2.10;;
6513;SDS011;3290;47.716;9.070;2022-09-13T01:59:52;3.30;;;2.27;;
6513;SDS011;3290;47.716;9.070;2022-09-13T02:05:11;8.00;;;2.30;;
6513;SDS011;3290;47.716;9.070;2022-09-13T02:07:42;9.30;;;2.00;;
6513;SDS011;3290;47.716;9.070;2022-09-13T02:10:19;2.57;;;2.37;;
6513;SDS011;3290;47.716;9.070;2022-09-13T02:12:58;1.77;;;1.67;;
6513;SDS011;3290;47.716;9.070;2022-09-13T02:15:27;6.47;;;2.27;;
6513;SDS011;3290;47.716;9.070;2022-09-13T02:18:03;3.90;;;2.37;;
6513;SDS011;3290;47.716;9.070;2022-09-13T02:20:37;4.00;;;2.13;;
6513;SDS011;3290;47.716;9.070;2022-09-13T02:23:17;9.43;;;2.00;;
6513;SDS011;3290;47.716;9.070;2022-09-13T02:25:49;2.30;;;2.10;;
6513;SDS011;3290;47.716;9.070;2022-09-13T02:28:19;3.33;;;1.87;;
6513;SDS011;3290;47.716;9.070;2022-09-13T02:30:49;4.10;;;2.40;;
6513;SDS011;3290;47.716;9.070;2022-09-13T02:33:20;3.07;;;2.30;;
6513;SDS011;3290;47.716;9.070;2022-09-13T02:35:52;5.93;;;2.10;;
6513;SDS011;3290;47.716;9.070;2022-09-13T02:41:35;2.83;;;2.07;;
6513;SDS011;3290;47.716;9.070;2022-09-13T02:44:13;2.20;;;2.00;;
6513;SDS011;3290;47.716;9.070;2022-09-13T02:57:34;2.37;;;1.90;;
6513;SDS011;3290;47.716;9.070;2022-09-13T03:00:15;8.53;;;3.60;;
6513;SDS011;3290;47.716;9.070;2022-09-13T03:02:40;5.23;;;2.57;;
6513;SDS011;3290;47.716;9.070;2022-09-13T03:05:09;3.30;;;2.13;;
6513;SDS011;3290;47.716;9.070;2022-09-13T03:07:34;2.20;;;2.00;;
6513;SDS011;3290;47.716;9.070;2022-09-13T03:10:02;5.03;;;2.17;;
6513;SDS011;3290;47.716;9.070;2022-09-13T03:20:43;3.90;;;2.00;;
6513;SDS011;3290;47.716;9.070;2022-09-13T03:34:34;8.30;;;3.10;;
6513;SDS011;3290;47.716;9.070;2022-09-13T03:37:25;5.43;;;2.50;;
6513;SDS011;3290;47.716;9.070;2022-09-13T03:39:58;9.60;;;2.80;;
6513;SDS011;3290;47.716;9.070;2022-09-13T03:42:51;2.97;;;2.67;;
6513;SDS011;3290;47.716;9.070;2022-09-13T03:45:21;5.13;;;2.70;;
6513;SDS011;3290;47.716;9.070;2022-09-13T03:47:50;3.10;;;2.80;;
6513;SDS011;3290;47.716;9.070;2022-09-13T03:50:20;8.10;;;2.93;;
6513;SDS011;3290;47.716;9.070;2022-09-13T03:52:57;3.27;;;2.87;;
6513;SDS011;3290;47.716;9.070;2022-09-13T03:55:28;3.93;;;3.00;;
6513;SDS011;3290;47.716;9.070;2022-09-13T03:57:56;4.07;;;3.23;;
6513;SDS011;3290;47.716;9.070;2022-09-13T04:00:22;4.53;;;2.50;;
6513;SDS011;3290;47.716;9.070;2022-09-13T04:02:47;3.03;;;2.40;;
6513;SDS011;3290;47.716;9.070;2022-09-13T04:05:13;7.60;;;2.73;;
6513;SDS011;3290;47.716;9.070;2022-09-13T04:07:39;6.43;;;2.70;;
6513;SDS011;3290;47.716;9.070;2022-09-13T04:10:04;5.10;;;2.77;;
6513;SDS011;3290;47.716;9.070;2022-09-13T04:12:30;4.17;;;2.63;;
6513;SDS011;3290;47.716;9.070;2022-09-13T04:14:56;3.23;;;2.50;;
6513;SDS011;3290;47.716;9.070;2022-09-13T04:17:22;12.63;;;3.07;;
6513;SDS011;3290;47.716;9.070;2022-09-13T04:19:47;6.50;;;2.87;;
6513;SDS011;3290;47.716;9.070;2022-09-13T04:22:13;3.77;;;2.83;;
6513;SDS011;3290;47.716;9.070;2022-09-13T04:24:39;7.60;;;2.50;;
6513;SDS011;3290;47.716;9.070;2022-09-13T04:27:04;3.00;;;2.20;;
6513;SDS011;3290;47.716;9.070;2022-09-13T04:29:30;4.83;;;2.60;;
6513;SDS011;3290;47.716;9.070;2022-09-13T04:31:57;4.27;;;2.90;;
6513;SDS011;3290;47.716;9.070;2022-09-13T04:34:22;10.83;;;2.70;;
6513;SDS011;3290;47.716;9.070;2022-09-13T04:36:49;3.47;;;2.20;;
6513;SDS011;3290;47.716;9.070;2022-09-13T04:39:16;5.87;;;2.80;;
6513;SDS011;3290;47.716;9.070;2022-09-13T04:41:42;3.63;;;2.80;;
6513;SDS011;3290;47.716;9.070;2022-09-13T04:44:11;8.80;;;3.80;;
6513;SDS011;3290;47.716;9.070;2022-09-13T04:46:36;3.03;;;2.50;;
6513;SDS011;3290;47.716;9.070;2022-09-13T04:49:02;6.03;;;3.10;;
6513;SDS011;3290;47.716;9.070;2022-09-13T04:51:27;6.00;;;3.93;;
6513;SDS011;3290;47.716;9.070;2022-09-13T04:53:53;7.67;;;3.90;;
6513;SDS011;3290;47.716;9.070;2022-09-13T04:56:20;5.07;;;3.60;;
6513;SDS011;3290;47.716;9.070;2022-09-13T04:58:47;7.40;;;2.83;;
6513;SDS011;3290;47.716;9.070;2022-09-13T05:01:14;4.20;;;2.97;;
6513;SDS011;3290;47.716;9.070;2022-09-13T05:03:40;4.73;;;3.80;;
6513;SDS011;3290;47.716;9.070;2022-09-13T05:06:10;5.37;;;3.90;;
6513;SDS011;3290;47.716;9.070;2022-09-13T05:08:38;3.73;;;3.40;;
6513;SDS011;3290;47.716;9.070;2022-09-13T05:11:04;5.07;;;3.10;;
6513;SDS011;3290;47.716;9.070;2022-09-13T05:13:31;4.57;;;3.50;;
6513;SDS011;3290;47.716;9.070;2022-09-13T05:15:58;3.93;;;3.37;;
6513;SDS011;3290;47.716;9.070;2022-09-13T05:18:33;3.80;;;3.17;;
6513;SDS011;3290;47.716;9.070;2022-09-13T05:21:00;5.70;;;3.00;;
6513;SDS011;3290;47.716;9.070;2022-09-13T05:23:26;5.13;;;4.10;;
6513;SDS011;3290;47.716;9.070;2022-09-13T05:25:57;8.20;;;3.37;;
6513;SDS011;3290;47.716;9.070;2022-09-13T05:28:23;6.67;;;3.53;;
6513;SDS011;3290;47.716;9.070;2022-09-13T05:31:12;5.10;;;4.13;;
6513;SDS011;3290;47.716;9.070;2022-09-13T05:33:40;8.43;;;5.50;;
6513;SDS011;3290;47.716;9.070;2022-09-13T05:36:06;5.93;;;4.40;;
6513;SDS011;3290;47.716;9.070;2022-09-13T05:38:32;6.37;;;4.10;;
6513;SDS011;3290;47.716;9.070;2022-09-13T05:40:58;3.97;;;3.57;;
6513;SDS011;3290;47.716;9.070;2022-09-13T05:43:26;14.17;;;4.60;;
6513;SDS011;3290;47.716;9.070;2022-09-13T05:46:03;4.53;;;3.83;;
6513;SDS011;3290;47.716;9.070;2022-09-13T05:48:30;4.13;;;3.60;;
6513;SDS011;3290;47.716;9.070;2022-09-13T05:50:56;6.53;;;3.90;;
6513;SDS011;3290;47.716;9.070;2022-09-13T05:53:27;5.13;;;3.33;;
6513;SDS011;3290;47.716;9.070;2022-09-13T05:55:53;4.20;;;3.33;;
6513;SDS011;3290;47.716;9.070;2022-09-13T05:58:18;4.60;;;3.50;;
6513;SDS011;3290;47.716;9.070;2022-09-13T06:00:43;8.00;;;3.47;;
6513;SDS011;3290;47.716;9.070;2022-09-13T06:03:09;5.57;;;3.87;;
6513;SDS011;3290;47.716;9.070;2022-09-13T06:05:34;6.40;;;3.40;;
6513;SDS011;3290;47.716;9.070;2022-09-13T06:07:59;10.17;;;3.40;;
6513;SDS011;3290;47.716;9.070;2022-09-13T06:10:25;3.60;;;3.23;;
6513;SDS011;3290;47.716;9.070;2022-09-13T06:12:50;7.70;;;4.60;;
6513;SDS011;3290;47.716;9.070;2022-09-13T06:15:16;4.97;;;3.57;;
6513;SDS011;3290;47.716;9.070;2022-09-13T06:17:41;8.00;;;3.50;;
6513;SDS011;3290;47.716;9.070;2022-09-13T06:20:07;6.63;;;3.83;;
6513;SDS011;3290;47.716;9.070;2022-09-13T06:22:33;8.40;;;4.43;;
6513;SDS011;3290;47.716;9.070;2022-09-13T06:24:59;9.90;;;3.67;;
6513;SDS011;3290;47.716;9.070;2022-09-13T06:27:25;4.27;;;3.40;;
6513;SDS011;3290;47.716;9.070;2022-09-13T06:29:50;5.67;;;4.27;;
6513;SDS011;3290;47.716;9.070;2022-09-13T06:32:15;6.30;;;4.00;;
6513;SDS011;3290;47.716;9.070;2022-09-13T06:34:41;18.93;;;5.43;;
6513;SDS011;3290;47.716;9.070;2022-09-13T06:37:06;10.57;;;4.13;;
6513;SDS011;3290;47.716;9.070;2022-09-13T06:39:31;12.57;;;4.60;;
6513;SDS011;3290;47.716;9.070;2022-09-13T06:41:58;8.50;;;4.90;;
6513;SDS011;3290;47.716;9.070;2022-09-13T06:44:24;7.87;;;4.53;;
6513;SDS011;3290;47.716;9.070;2022-09-13T06:46:49;9.57;;;4.53;;
6513;SDS011;3290;47.716;9.070;2022-09-13T06:49:14;7.50;;;4.03;;
6513;SDS011;3290;47.716;9.070;2022-09-13T06:51:40;5.27;;;4.33;;
6513;SDS011;3290;47.716;9.070;2022-09-13T06:54:05;6.80;;;4.20;;
6513;SDS011;3290;47.716;9.070;2022-09-13T06:56:31;4.70;;;4.23;;
6513;SDS011;3290;47.716;9.070;2022-09-13T06:59:00;7.33;;;3.77;;
6513;SDS011;3290;47.716;9.070;2022-09-13T07:01:33;8.80;;;4.90;;
6513;SDS011;3290;47.716;9.070;2022-09-13T07:04:10;10.63;;;4.13;;
6513;SDS011;3290;47.716;9.070;2022-09-13T07:06:42;8.20;;;5.33;;
6513;SDS011;3290;47.716;9.070;2022-09-13T07:09:19;11.80;;;4.17;;
6513;SDS011;3290;47.716;9.070;2022-09-13T07:11:46;5.30;;;3.60;;
6513;SDS011;3290;47.716;9.070;2022-09-13T07:14:14;5.87;;;3.93;;
6513;SDS011;3290;47.716;9.070;2022-09-13T07:16:47;16.60;;;5.20;;
6513;SDS011;3290;47.716;9.070;2022-09-13T07:19:14;5.60;;;4.60;;
6513;SDS011;3290;47.716;9.070;2022-09-13T07:21:46;4.83;;;4.00;;
6513;SDS011;3290;47.716;9.070;2022-09-13T07:24:13;6.27;;;5.17;;
6513;SDS011;3290;47.716;9.070;2022-09-13T07:26:40;4.33;;;3.93;;
6513;SDS011;3290;47.716;9.070;2022-09-13T07:29:06;4.60;;;4.20;;
6513;SDS011;3290;47.716;9.070;2022-09-13T07:31:37;7.90;;;3.93;;
6513;SDS011;3290;47.716;9.070;2022-09-13T07:36:40;12.73;;;4.50;;
6513;SDS011;3290;47.716;9.070;2022-09-13T07:39:06;8.97;;;4.10;;
6513;SDS011;3290;47.716;9.070;2022-09-13T07:41:32;9.70;;;4.93;;
6513;SDS011;3290;47.716;9.070;2022-09-13T07:43:59;11.33;;;4.30;;
6513;SDS011;3290;47.716;9.070;2022-09-13T07:46:26;4.97;;;3.77;;
6513;SDS011;3290;47.716;9.070;2022-09-13T07:48:56;7.93;;;4.03;;
6513;SDS011;3290;47.716;9.070;2022-09-13T07:51:24;6.23;;;4.33;;
6513;SDS011;3290;47.716;9.070;2022-09-13T07:53:51;5.90;;;4.53;;
6513;SDS011;3290;47.716;9.070;2022-09-13T07:56:27;10.20;;;4.37;;
6513;SDS011;3290;47.716;9.070;2022-09-13T07:58:54;8.77;;;4.10;;
6513;SDS011;3290;47.716;9.070;2022-09-13T08:01:27;4.87;;;3.60;;
6513;SDS011;3290;47.716;9.070;2022-09-13T08:03:57;9.90;;;4.20;;
6513;SDS011;3290;47.716;9.070;2022-09-13T08:06:25;5.67;;;4.30;;
6513;SDS011;3290;47.716;9.070;2022-09-13T08:08:52;6.07;;;4.57;;
6513;SDS011;3290;47.716;9.070;2022-09-13T08:11:19;5.13;;;3.87;;
6513;SDS011;3290;47.716;9.070;2022-09-13T08:13:46;7.37;;;4.20;;
6513;SDS011;3290;47.716;9.070;2022-09-13T08:16:13;6.70;;;3.60;;
6513;SDS011;3290;47.716;9.070;2022-09-13T08:18:44;12.07;;;4.33;;
6513;SDS011;3290;47.716;9.070;2022-09-13T08:21:11;5.87;;;4.00;;
6513;SDS011;3290;47.716;9.070;2022-09-13T08:23:37;4.50;;;3.63;;
6513;SDS011;3290;47.716;9.070;2022-09-13T08:26:03;6.07;;;3.60;;
6513;SDS011;3290;47.716;9.070;2022-09-13T08:28:30;8.13;;;3.50;;
6513;SDS011;3290;47.716;9.070;2022-09-13T08:31:01;5.60;;;3.70;;
6513;SDS011;3290;47.716;9.070;2022-09-13T08:33:28;6.83;;;3.87;;
6513;SDS011;3290;47.716;9.070;2022-09-13T08:35:53;4.80;;;3.60;;
6513;SDS011;3290;47.716;9.070;2022-09-13T08:38:19;5.93;;;3.67;;
6513;SDS011;3290;47.716;9.070;2022-09-13T08:49:04;5.80;;;4.07;;
6513;SDS011;3290;47.716;9.070;2022-09-13T08:51:40;4.00;;;3.60;;
6513;SDS011;3290;47.716;9.070;2022-09-13T08:54:11;4.27;;;3.40;;
6513;SDS011;3290;47.716;9.070;2022-09-13T08:56:55;4.80;;;3.73;;
6513;SDS011;3290;47.716;9.070;2022-09-13T09:01:55;6.77;;;4.40;;
6513;SDS011;3290;47.716;9.070;2022-09-13T09:04:34;4.73;;;3.40;;
6513;SDS011;3290;47.716;9.070;2022-09-13T09:07:18;6.87;;;3.40;;
6513;SDS011;3290;47.716;9.070;2022-09-13T09:09:54;7.83;;;3.80;;
6513;SDS011;3290;47.716;9.070;2022-09-13T09:12:49;6.93;;;3.27;;
6513;SDS011;3290;47.716;9.070;2022-09-13T09:15:21;6.47;;;3.83;;
6513;SDS011;3290;47.716;9.070;2022-09-13T09:17:50;7.20;;;4.03;;
6513;SDS011;3290;47.716;9.070;2022-09-13T09:20:23;7.00;;;3.80;;
6513;SDS011;3290;47.716;9.070;2022-09-13T09:22:51;9.67;;;3.30;;
6513;SDS011;3290;47.716;9.070;2022-09-13T09:25:22;5.00;;;3.10;;
6513;SDS011;3290;47.716;9.070;2022-09-13T09:27:50;6.07;;;3.30;;
6513;SDS011;3290;47.716;9.070;2022-09-13T09:30:16;6.43;;;3.13;;
6513;SDS011;3290;47.716;9.070;2022-09-13T09:35:53;10.43;;;4.00;;
6513;SDS011;3290;47.716;9.070;2022-09-13T09:40:49;3.53;;;3.07;;
6513;SDS011;3290;47.716;9.070;2022-09-13T09:43:20;6.33;;;3.30;;
6513;SDS011;3290;47.716;9.070;2022-09-13T09:45:51;6.03;;;3.13;;
6513;SDS011;3290;47.716;9.070;2022-09-13T09:48:21;4.70;;;3.10;;
6513;SDS011;3290;47.716;9.070;2022-09-13T09:50:54;6.43;;;2.83;;
6513;SDS011;3290;47.716;9.070;2022-09-13T09:53:32;3.37;;;2.63;;
6513;SDS011;3290;47.716;9.070;2022-09-13T09:58:40;4.70;;;3.80;;
6513;SDS011;3290;47.716;9.070;2022-09-13T10:01:40;4.70;;;3.20;;
6513;SDS011;3290;47.716;9.070;2022-09-13T10:06:37;7.03;;;3.17;;
6513;SDS011;3290;47.716;9.070;2022-09-13T10:11:44;8.50;;;3.70;;
6513;SDS011;3290;47.716;9.070;2022-09-13T10:17:14;4.07;;;3.03;;
6513;SDS011;3290;47.716;9.070;2022-09-13T10:22:25;5.33;;;3.90;;
6513;SDS011;3290;47.716;9.070;2022-09-13T10:24:55;5.50;;;3.00;;
6513;SDS011;3290;47.716;9.070;2022-09-13T10:27:41;5.67;;;2.67;;
6513;SDS011;3290;47.716;9.070;2022-09-13T10:30:54;9.07;;;3.10;;
6513;SDS011;3290;47.716;9.070;2022-09-13T10:33:02;4.13;;;2.90;;
6513;SDS011;3290;47.716;9.070;2022-09-13T10:35:29;3.90;;;2.80;;
6513;SDS011;3290;47.716;9.070;2022-09-13T10:37:54;3.07;;;2.47;;
6513;SDS011;3290;47.716;9.070;2022-09-13T10:40:29;6.30;;;2.40;;
6513;SDS011;3290;47.716;9.070;2022-09-13T10:43:03;3.90;;;2.60;;
6513;SDS011;3290;47.716;9.070;2022-09-13T10:45:39;3.50;;;2.47;;
6513;SDS011;3290;47.716;9.070;2022-09-13T10:48:10;5.07;;;2.40;;
6513;SDS011;3290;47.716;9.070;2022-09-13T10:50:38;2.57;;;2.23;;
6513;SDS011;3290;47.716;9.070;2022-09-13T10:53:04;2.30;;;2.00;;
6513;SDS011;3290;47.716;9.070;2022-09-13T10:56:00;3.80;;;1.97;;
6513;SDS011;3290;47.716;9.070;2022-09-13T10:58:26;2.23;;;2.03;;
6513;SDS011;3290;47.716;9.070;2022-09-13T11:06:37;5.47;;;1.73;;
6513;SDS011;3290;47.716;9.070;2022-09-13T11:09:43;3.93;;;1.97;;
6513;SDS011;3290;47.716;9.070;2022-09-13T11:23:22;5.30;;;2.10;;
6513;SDS011;3290;47.716;9.070;2022-09-13T11:39:37;3.33;;;1.57;;
6513;SDS011;3290;47.716;9.070;2022-09-13T11:42:20;3.67;;;2.00;;
6513;SDS011;3290;47.716;9.070;2022-09-13T11:47:47;4.13;;;1.80;;
6513;SDS011;3290;47.716;9.070;2022-09-13T11:50:31;2.10;;;1.90;;
6513;SDS011;3290;47.716;9.070;2022-09-13T11:56:19;1.77;;;1.60;;
6513;SDS011;3290;47.716;9.070;2022-09-13T11:58:52;2.80;;;1.80;;
6513;SDS011;3290;47.716;9.070;2022-09-13T12:01:36;3.10;;;2.10;;
6513;SDS011;3290;47.716;9.070;2022-09-13T12:04:11;2.83;;;1.80;;
6513;SDS011;3290;47.716;9.070;2022-09-13T12:06:49;2.60;;;1.67;;
6513;SDS011;3290;47.716;9.070;2022-09-13T12:09:21;2.50;;;1.60;;
6513;SDS011;3290;47.716;9.070;2022-09-13T12:11:52;1.93;;;1.73;;
6513;SDS011;3290;47.716;9.070;2022-09-13T12:14:20;1.83;;;1.63;;
6513;SDS011;3290;47.716;9.070;2022-09-13T12:16:52;5.00;;;1.90;;
6513;SDS011;3290;47.716;9.070;2022-09-13T12:19:33;2.13;;;1.87;;
6513;SDS011;3290;47.716;9.070;2022-09-13T12:22:06;8.10;;;2.53;;
6513;SDS011;3290;47.716;9.070;2022-09-13T12:24:47;2.30;;;1.80;;
6513;SDS011;3290;47.716;9.070;2022-09-13T12:29:55;4.13;;;1.97;;
6513;SDS011;3290;47.716;9.070;2022-09-13T12:32:39;1.70;;;1.60;;
6513;SDS011;3290;47.716;9.070;2022-09-13T12:35:06;1.60;;;1.47;;
6513;SDS011;3290;47.716;9.070;2022-09-13T12:46:20;3.43;;;1.70;;
6513;SDS011;3290;47.716;9.070;2022-09-13T12:49:20;4.63;;;1.77;;
6513;SDS011;3290;47.716;9.070;2022-09-13T13:00:28;2.17;;;1.47;;
6513;SDS011;3290;47.716;9.070;2022-09-13T13:03:00;2.90;;;1.57;;
6513;SDS011;3290;47.716;9.070;2022-09-13T13:05:35;5.20;;;1.50;;
6513;SDS011;3290;47.716;9.070;2022-09-13T13:10:44;3.30;;;1.63;;
6513;SDS011;3290;47.716;9.070;2022-09-13T13:13:39;2.10;;;1.63;;
6513;SDS011;3290;47.716;9.070;2022-09-13T13:21:53;1.53;;;1.40;;
6513;SDS011;3290;47.716;9.070;2022-09-13T13:26:51;6.70;;;1.50;;
6513;SDS011;3290;47.716;9.070;2022-09-13T13:36:46;1.63;;;1.30;;
6513;SDS011;3290;47.716;9.070;2022-09-13T13:46:43;1.50;;;1.40;;
6513;SDS011;3290;47.716;9.070;2022-09-13T14:00:34;1.90;;;1.10;;
6513;SDS011;3290;47.716;9.070;2022-09-13T14:06:09;6.33;;;2.80;;
6513;SDS011;3290;47.716;9.070;2022-09-13T14:19:54;2.37;;;1.50;;
6513;SDS011;3290;47.716;9.070;2022-09-13T14:22:27;1.40;;;1.30;;
6513;SDS011;3290;47.716;9.070;2022-09-13T14:24:54;2.10;;;1.47;;
6513;SDS011;3290;47.716;9.070;2022-09-13T14:27:22;3.43;;;1.20;;
6513;SDS011;3290;47.716;9.070;2022-09-13T14:29:53;8.73;;;1.80;;
6513;SDS011;3290;47.716;9.070;2022-09-13T14:32:22;1.30;;;1.20;;
6513;SDS011;3290;47.716;9.070;2022-09-13T14:34:54;6.50;;;1.70;;
6513;SDS011;3290;47.716;9.070;2022-09-13T14:37:43;6.77;;;1.13;;
6513;SDS011;3290;47.716;9.070;2022-09-13T14:40:18;8.73;;;1.90;;
6513;SDS011;3290;47.716;9.070;2022-09-13T14:42:47;1.87;;;1.70;;
6513;SDS011;3290;47.716;9.070;2022-09-13T14:48:00;5.40;;;1.70;;
6513;SDS011;3290;47.716;9.070;2022-09-13T14:50:33;2.70;;;1.50;;
6513;SDS011;3290;47.716;9.070;2022-09-13T14:53:05;2.20;;;1.50;;
6513;SDS011;3290;47.716;9.070;2022-09-13T14:55:36;4.47;;;1.43;;
6513;SDS011;3290;47.716;9.070;2022-09-13T14:58:07;1.60;;;1.50;;
6513;SDS011;3290;47.716;9.070;2022-09-13T15:03:39;4.03;;;1.50;;
6513;SDS011;3290;47.716;9.070;2022-09-13T15:06:18;5.60;;;1.57;;
6513;SDS011;3290;47.716;9.070;2022-09-13T15:08:47;2.97;;;1.50;;
6513;SDS011;3290;47.716;9.070;2022-09-13T15:11:14;3.30;;;1.63;;
6513;SDS011;3290;47.716;9.070;2022-09-13T15:16:54;2.90;;;1.70;;
6513;SDS011;3290;47.716;9.070;2022-09-13T15:22:08;2.50;;;1.43;;
6513;SDS011;3290;47.716;9.070;2022-09-13T15:24:41;3.60;;;1.33;;
6513;SDS011;3290;47.716;9.070;2022-09-13T15:27:19;4.00;;;2.53;;
6513;SDS011;3290;47.716;9.070;2022-09-13T15:29:49;2.30;;;1.33;;
6513;SDS011;3290;47.716;9.070;2022-09-13T15:32:20;1.30;;;1.20;;
6513;SDS011;3290;47.716;9.070;2022-09-13T15:35:15;2.03;;;1.57;;
6513;SDS011;3290;47.716;9.070;2022-09-13T15:37:56;3.73;;;1.43;;
6513;SDS011;3290;47.716;9.070;2022-09-13T15:40:24;2.57;;;1.50;;
6513;SDS011;3290;47.716;9.070;2022-09-13T15:42:52;2.90;;;1.63;;
6513;SDS011;3290;47.716;9.070;2022-09-13T15:45:19;2.00;;;1.60;;
6513;SDS011;3290;47.716;9.070;2022-09-13T15:47:46;5.13;;;1.90;;
6513;SDS011;3290;47.716;9.070;2022-09-13T15:52:46;10.50;;;2.03;;
6513;SDS011;3290;47.716;9.070;2022-09-13T15:55:11;2.17;;;1.67;;
6513;SDS011;3290;47.716;9.070;2022-09-13T15:57:37;5.80;;;2.23;;
6513;SDS011;3290;47.716;9.070;2022-09-13T16:00:02;2.50;;;1.90;;
6513;SDS011;3290;47.716;9.070;2022-09-13T16:02:31;3.07;;;2.17;;
6513;SDS011;3290;47.716;9.070;2022-09-13T16:04:57;1.90;;;1.70;;
6513;SDS011;3290;47.716;9.070;2022-09-13T16:07:23;3.97;;;2.00;;
6513;SDS011;3290;47.716;9.070;2022-09-13T16:09:50;3.47;;;1.73;;
6513;SDS011;3290;47.716;9.070;2022-09-13T16:12:16;1.73;;;1.63;;
6513;SDS011;3290;47.716;9.070;2022-09-13T16:14:43;3.23;;;1.70;;
6513;SDS011;3290;47.716;9.070;2022-09-13T16:17:10;6.27;;;1.93;;
6513;SDS011;3290;47.716;9.070;2022-09-13T16:19:44;3.10;;;2.00;;
6513;SDS011;3290;47.716;9.070;2022-09-13T16:22:09;6.70;;;2.67;;
6513;SDS011;3290;47.716;9.070;2022-09-13T16:24:35;2.47;;;2.27;;
6513;SDS011;3290;47.716;9.070;2022-09-13T16:27:02;3.47;;;1.77;;
6513;SDS011;3290;47.716;9.070;2022-09-13T16:29:28;3.93;;;2.60;;
6513;SDS011;3290;47.716;9.070;2022-09-13T16:31:53;1.97;;;1.73;;
6513;SDS011;3290;47.716;9.070;2022-09-13T16:34:19;11.20;;;4.57;;
6513;SDS011;3290;47.716;9.070;2022-09-13T16:36:45;11.30;;;2.97;;
6513;SDS011;3290;47.716;9.070;2022-09-13T16:39:11;25.73;;;7.30;;
6513;SDS011;3290;47.716;9.070;2022-09-13T16:41:37;7.43;;;2.80;;
6513;SDS011;3290;47.716;9.070;2022-09-13T16:44:04;7.90;;;2.47;;
6513;SDS011;3290;47.716;9.070;2022-09-13T16:46:30;6.90;;;2.20;;
6513;SDS011;3290;47.716;9.070;2022-09-13T16:48:56;4.50;;;2.30;;
6513;SDS011;3290;47.716;9.070;2022-09-13T16:51:22;5.07;;;3.43;;
6513;SDS011;3290;47.716;9.070;2022-09-13T16:53:48;26.20;;;8.83;;
6513;SDS011;3290;47.716;9.070;2022-09-13T16:56:16;12.07;;;7.50;;
6513;SDS011;3290;47.716;9.070;2022-09-13T16:58:43;19.07;;;10.10;;
6513;SDS011;3290;47.716;9.070;2022-09-13T17:01:14;16.03;;;9.83;;
6513;SDS011;3290;47.716;9.070;2022-09-13T17:03:41;12.50;;;7.27;;
6513;SDS011;3290;47.716;9.070;2022-09-13T17:06:08;8.50;;;5.60;;
6513;SDS011;3290;47.716;9.070;2022-09-13T17:08:36;9.50;;;4.23;;
6513;SDS011;3290;47.716;9.070;2022-09-13T17:11:03;6.73;;;2.97;;
6513;SDS011;3290;47.716;9.070;2022-09-13T17:13:30;7.00;;;3.50;;
6513;SDS011;3290;47.716;9.070;2022-09-13T17:15:55;2.73;;;2.53;;
6513;SDS011;3290;47.716;9.070;2022-09-13T17:18:21;5.87;;;2.83;;
6513;SDS011;3290;47.716;9.070;2022-09-13T17:20:47;4.53;;;2.40;;
6513;SDS011;3290;47.716;9.070;2022-09-13T17:23:14;5.30;;;2.47;;
6513;SDS011;3290;47.716;9.070;2022-09-13T17:25:41;3.70;;;2.30;;
6513;SDS011;3290;47.716;9.070;2022-09-13T17:28:10;6.03;;;2.20;;
6513;SDS011;3290;47.716;9.070;2022-09-13T17:30:35;6.87;;;2.40;;
6513;SDS011;3290;47.716;9.070;2022-09-13T17:33:01;2.63;;;2.37;;
6513;SDS011;3290;47.716;9.070;2022-09-13T17:35:29;4.10;;;2.10;;
6513;SDS011;3290;47.716;9.070;2022-09-13T17:37:54;4.10;;;2.33;;
6513;SDS011;3290;47.716;9.070;2022-09-13T17:40:20;2.63;;;1.90;;
6513;SDS011;3290;47.716;9.070;2022-09-13T17:42:45;7.17;;;3.33;;
6513;SDS011;3290;47.716;9.070;2022-09-13T17:45:13;8.63;;;3.20;;
6513;SDS011;3290;47.716;9.070;2022-09-13T17:47:38;2.90;;;2.20;;
6513;SDS011;3290;47.716;9.070;2022-09-13T17:50:04;6.77;;;2.60;;
6513;SDS011;3290;47.716;9.070;2022-09-13T17:52:29;3.17;;;2.60;;
6513;SDS011;3290;47.716;9.070;2022-09-13T17:54:55;4.43;;;2.90;;
6513;SDS011;3290;47.716;9.070;2022-09-13T17:57:20;5.07;;;2.53;;
6513;SDS011;3290;47.716;9.070;2022-09-13T17:59:46;5.20;;;3.50;;
6513;SDS011;3290;47.716;9.070;2022-09-13T18:02:11;6.60;;;3.27;;
6513;SDS011;3290;47.716;9.070;2022-09-13T18:04:37;4.47;;;2.60;;
6513;SDS011;3290;47.716;9.070;2022-09-13T18:07:02;6.37;;;2.27;;
6513;SDS011;3290;47.716;9.070;2022-09-13T18:09:28;5.83;;;3.00;;
6513;SDS011;3290;47.716;9.070;2022-09-13T18:11:53;3.50;;;2.77;;
6513;SDS011;3290;47.716;9.070;2022-09-13T18:14:19;3.27;;;2.50;;
6513;SDS011;3290;47.716;9.070;2022-09-13T18:16:44;6.00;;;3.63;;
6513;SDS011;3290;47.716;9.070;2022-09-13T18:19:11;4.67;;;2.70;;
6513;SDS011;3290;47.716;9.070;2022-09-13T18:21:37;4.63;;;2.90;;
6513;SDS011;3290;47.716;9.070;2022-09-13T18:24:02;7.17;;;3.47;;
6513;SDS011;3290;47.716;9.070;2022-09-13T18:26:29;3.73;;;2.80;;
6513;SDS011;3290;47.716;9.070;2022-09-13T18:28:57;11.10;;;3.30;;
6513;SDS011;3290;47.716;9.070;2022-09-13T18:31:28;7.70;;;3.17;;
6513;SDS011;3290;47.716;9.070;2022-09-13T18:33:55;4.50;;;2.70;;
6513;SDS011;3290;47.716;9.070;2022-09-13T18:36:22;4.57;;;3.20;;
6513;SDS011;3290;47.716;9.070;2022-09-13T18:38:48;3.07;;;2.30;;
6513;SDS011;3290;47.716;9.070;2022-09-13T18:41:15;4.30;;;2.70;;
6513;SDS011;3290;47.716;9.070;2022-09-13T18:43:47;8.63;;;3.13;;
6513;SDS011;3290;47.716;9.070;2022-09-13T18:46:15;9.10;;;2.83;;
6513;SDS011;3290;47.716;9.070;2022-09-13T18:48:44;4.20;;;2.80;;
6513;SDS011;3290;47.716;9.070;2022-09-13T18:51:12;6.13;;;2.77;;
6513;SDS011;3290;47.716;9.070;2022-09-13T18:53:43;5.90;;;2.80;;
6513;SDS011;3290;47.716;9.070;2022-09-13T18:56:09;2.83;;;2.37;;
6513;SDS011;3290;47.716;9.070;2022-09-13T18:58:37;3.00;;;2.70;;
6513;SDS011;3290;47.716;9.070;2022-09-13T19:01:11;8.87;;;3.57;;
6513;SDS011;3290;47.716;9.070;2022-09-13T19:03:57;5.20;;;3.03;;
6513;SDS011;3290;47.716;9.070;2022-09-13T19:06:28;4.03;;;2.70;;
6513;SDS011;3290;47.716;9.070;2022-09-13T19:08:58;5.43;;;3.03;;
6513;SDS011;3290;47.716;9.070;2022-09-13T19:11:25;3.20;;;2.53;;
6513;SDS011;3290;47.716;9.070;2022-09-13T19:13:51;5.67;;;2.70;;
6513;SDS011;3290;47.716;9.070;2022-09-13T19:16:17;6.27;;;4.00;;